createdAt,value
2023-04-09T00:00:13.315Z,1008.3
2023-04-09T00:01:30.794Z,1008.3
2023-04-09T00:02:47.327Z,1008.3
2023-04-09T00:04:04.404Z,1008.3
2023-04-09T00:05:21.401Z,1008.3
2023-04-09T00:06:38.396Z,1008.3
2023-04-09T00:07:56.392Z,1008.3
2023-04-09T00:09:13.306Z,1008.3
2023-04-09T00:10:30.302Z,1008.3
2023-04-09T00:11:47.338Z,1008.3
2023-04-09T00:13:04.626Z,1008.2
2023-04-09T00:14:21.311Z,1008.2
2023-04-09T00:15:38.408Z,1008.2
2023-04-09T00:16:55.355Z,1008.2
2023-04-09T00:18:12.307Z,1008.2
2023-04-09T00:19:29.319Z,1008.2
2023-04-09T00:20:46.379Z,1008.1
2023-04-09T00:22:03.393Z,1008.2
2023-04-09T00:23:20.382Z,1008.2
2023-04-09T00:24:37.334Z,1008.2
2023-04-09T00:25:54.349Z,1008.1
2023-04-09T00:27:11.364Z,1008.2
2023-04-09T00:28:28.638Z,1008.2
2023-04-09T00:29:45.410Z,1008.2
2023-04-09T00:31:02.317Z,1008.2
2023-04-09T00:32:19.363Z,1008.2
2023-04-09T00:33:36.386Z,1008.2
2023-04-09T00:34:54.458Z,1008.2
2023-04-09T00:36:11.377Z,1008.2
2023-04-09T00:37:28.355Z,1008.2
2023-04-09T00:38:45.376Z,1008.2
2023-04-09T00:40:02.389Z,1008.2
2023-04-09T00:41:19.401Z,1008.2
2023-04-09T00:42:36.367Z,1008.2
2023-04-09T00:43:53.388Z,1008.2
2023-04-09T00:45:10.374Z,1008.2
2023-04-09T00:46:27.377Z,1008.2
2023-04-09T00:47:44.435Z,1008.2
2023-04-09T00:49:01.395Z,1008.2
2023-04-09T00:50:18.385Z,1008.2
2023-04-09T00:51:35.486Z,1008.2
2023-04-09T00:52:52.375Z,1008.2
2023-04-09T00:54:09.367Z,1008.2
2023-04-09T00:55:26.376Z,1008.3
2023-04-09T00:56:43.383Z,1008.3
2023-04-09T00:58:00.398Z,1008.3
2023-04-09T00:59:17.594Z,1008.2
2023-04-09T01:00:34.383Z,1008.2
2023-04-09T01:01:51.444Z,1008.2
2023-04-09T01:03:08.539Z,1008.2
2023-04-09T01:04:25.609Z,1008.3
2023-04-09T01:05:42.374Z,1008.3
2023-04-09T01:06:59.450Z,1008.3
2023-04-09T01:08:16.446Z,1008.3
2023-04-09T01:09:33.372Z,1008.3
2023-04-09T01:10:50.380Z,1008.3
2023-04-09T01:12:07.570Z,1008.4
2023-04-09T01:13:24.416Z,1008.4
2023-04-09T01:14:41.388Z,1008.5
2023-04-09T01:15:58.490Z,1008.4
2023-04-09T01:17:15.405Z,1008.5
2023-04-09T01:18:32.426Z,1008.4
2023-04-09T01:19:49.436Z,1008.4
2023-04-09T01:21:06.521Z,1008.4
2023-04-09T01:22:23.394Z,1008.4
2023-04-09T01:23:40.418Z,1008.4
2023-04-09T01:24:57.404Z,1008.5
2023-04-09T01:26:14.443Z,1008.5
2023-04-09T01:27:31.414Z,1008.5
2023-04-09T01:28:48.528Z,1008.5
2023-04-09T01:30:05.419Z,1008.5
2023-04-09T01:31:22.530Z,1008.5
2023-04-09T01:32:39.452Z,1008.5
2023-04-09T01:33:56.434Z,1008.5
2023-04-09T01:35:13.475Z,1008.5
2023-04-09T01:36:30.441Z,1008.6
2023-04-09T01:37:47.449Z,1008.6
2023-04-09T01:39:04.419Z,1008.7
2023-04-09T01:40:21.484Z,1008.7
2023-04-09T01:41:38.453Z,1008.7
2023-04-09T01:42:55.414Z,1008.7
2023-04-09T01:44:12.444Z,1008.7
2023-04-09T01:45:29.555Z,1008.7
2023-04-09T01:46:46.439Z,1008.7
2023-04-09T01:48:03.517Z,1008.7
2023-04-09T01:49:20.475Z,1008.7
2023-04-09T01:50:37.531Z,1008.7
2023-04-09T01:51:54.459Z,1008.7
2023-04-09T01:53:11.520Z,1008.7
2023-04-09T01:54:28.531Z,1008.7
2023-04-09T01:55:45.486Z,1008.7
2023-04-09T01:57:02.459Z,1008.7
2023-04-09T01:58:19.445Z,1008.7
2023-04-09T01:59:36.449Z,1008.7
2023-04-09T02:00:53.528Z,1008.6
2023-04-09T02:02:10.496Z,1008.6
2023-04-09T02:03:27.528Z,1008.7
2023-04-09T02:04:44.504Z,1008.6
2023-04-09T02:06:01.520Z,1008.6
2023-04-09T02:07:18.553Z,1008.6
2023-04-09T02:08:35.617Z,1008.7
2023-04-09T02:09:52.483Z,1008.7
2023-04-09T02:11:09.480Z,1008.7
2023-04-09T02:12:27.409Z,1008.7
2023-04-09T02:13:44.479Z,1008.6
2023-04-09T02:15:01.494Z,1008.6
2023-04-09T02:16:18.649Z,1008.6
2023-04-09T02:17:35.679Z,1008.6
2023-04-09T02:18:53.772Z,1008.6
2023-04-09T02:20:10.536Z,1008.6
2023-04-09T02:21:27.487Z,1008.6
2023-04-09T02:22:44.505Z,1008.6
2023-04-09T02:24:01.506Z,1008.6
2023-04-09T02:25:18.488Z,1008.6
2023-04-09T02:26:35.549Z,1008.7
2023-04-09T02:27:52.547Z,1008.6
2023-04-09T02:29:09.486Z,1008.6
2023-04-09T02:30:26.522Z,1008.7
2023-04-09T02:31:43.498Z,1008.6
2023-04-09T02:33:00.578Z,1008.7
2023-04-09T02:34:17.503Z,1008.6
2023-04-09T02:35:34.571Z,1008.7
2023-04-09T02:36:51.536Z,1008.7
2023-04-09T02:38:08.533Z,1008.7
2023-04-09T02:39:25.509Z,1008.6
2023-04-09T02:40:42.504Z,1008.6
2023-04-09T02:41:59.549Z,1008.6
2023-04-09T02:43:16.626Z,1008.6
2023-04-09T02:44:33.537Z,1008.6
2023-04-09T02:45:50.901Z,1008.6
2023-04-09T02:47:07.532Z,1008.6
2023-04-09T02:48:24.545Z,1008.6
2023-04-09T02:49:41.609Z,1008.6
2023-04-09T02:50:58.583Z,1008.6
2023-04-09T02:52:15.518Z,1008.6
2023-04-09T02:53:32.617Z,1008.6
2023-04-09T02:54:49.693Z,1008.6
2023-04-09T02:56:06.544Z,1008.6
2023-04-09T02:57:23.570Z,1008.6
2023-04-09T02:58:40.550Z,1008.6
2023-04-09T02:59:57.561Z,1008.6
2023-04-09T03:01:14.634Z,1008.6
2023-04-09T03:02:31.712Z,1008.6
2023-04-09T03:03:48.622Z,1008.6
2023-04-09T03:05:05.582Z,1008.6
2023-04-09T03:06:22.620Z,1008.6
2023-04-09T03:07:39.555Z,1008.6
2023-04-09T03:08:56.597Z,1008.6
2023-04-09T03:10:13.553Z,1008.4
2023-04-09T03:11:30.562Z,1008.5
2023-04-09T03:12:47.657Z,1008.6
2023-04-09T03:14:04.601Z,1008.5
2023-04-09T03:15:21.701Z,1008.6
2023-04-09T03:16:38.592Z,1008.5
2023-04-09T03:17:55.600Z,1008.5
2023-04-09T03:19:12.611Z,1008.5
2023-04-09T03:20:29.611Z,1008.5
2023-04-09T03:21:47.682Z,1008.6
2023-04-09T03:23:04.564Z,1008.6
2023-04-09T03:24:21.661Z,1008.6
2023-04-09T03:25:38.575Z,1008.6
2023-04-09T03:26:55.574Z,1008.6
2023-04-09T03:28:12.617Z,1008.6
2023-04-09T03:29:29.590Z,1008.6
2023-04-09T03:30:46.680Z,1008.5
2023-04-09T03:32:03.616Z,1008.5
2023-04-09T03:33:20.715Z,1008.5
2023-04-09T03:34:37.680Z,1008.5
2023-04-09T03:35:54.606Z,1008.5
2023-04-09T03:37:11.775Z,1008.5
2023-04-09T03:38:28.722Z,1008.5
2023-04-09T03:39:45.625Z,1008.5
2023-04-09T03:41:02.606Z,1008.5
2023-04-09T03:42:19.639Z,1008.5
2023-04-09T03:43:36.625Z,1008.5
2023-04-09T03:44:53.616Z,1008.5
2023-04-09T03:46:10.648Z,1008.5
2023-04-09T03:47:27.654Z,1008.5
2023-04-09T03:48:44.634Z,1008.5
2023-04-09T03:50:01.744Z,1008.5
2023-04-09T03:51:18.641Z,1008.5
2023-04-09T03:52:35.752Z,1008.5
2023-04-09T03:53:52.616Z,1008.6
2023-04-09T03:55:09.684Z,1008.6
2023-04-09T03:56:26.669Z,1008.6
2023-04-09T03:57:43.606Z,1008.6
2023-04-09T03:59:00.612Z,1008.6
2023-04-09T04:00:17.657Z,1008.6
2023-04-09T04:01:34.681Z,1008.6
2023-04-09T04:02:51.929Z,1008.6
2023-04-09T04:04:08.761Z,1008.6
2023-04-09T04:05:25.633Z,1008.6
2023-04-09T04:06:42.634Z,1008.6
2023-04-09T04:07:59.661Z,1008.6
2023-04-09T04:09:16.784Z,1008.7
2023-04-09T04:10:33.695Z,1008.7
2023-04-09T04:11:50.636Z,1008.7
2023-04-09T04:13:07.658Z,1008.7
2023-04-09T04:14:24.698Z,1008.7
2023-04-09T04:15:41.809Z,1008.8
2023-04-09T04:16:58.656Z,1008.7
2023-04-09T04:18:15.770Z,1008.8
2023-04-09T04:19:32.700Z,1008.8
2023-04-09T04:20:49.674Z,1008.8
2023-04-09T04:22:06.695Z,1008.8
2023-04-09T04:23:23.789Z,1008.8
2023-04-09T04:24:40.698Z,1008.8
2023-04-09T04:25:57.685Z,1008.8
2023-04-09T04:27:14.655Z,1008.8
2023-04-09T04:28:31.667Z,1008.8
2023-04-09T04:29:48.669Z,1008.7
2023-04-09T04:31:05.730Z,1008.7
2023-04-09T04:32:22.678Z,1008.7
2023-04-09T04:33:39.712Z,1008.7
2023-04-09T04:34:56.756Z,1008.7
2023-04-09T04:36:13.682Z,1008.7
2023-04-09T04:37:30.681Z,1008.7
2023-04-09T04:38:47.723Z,1008.8
2023-04-09T04:40:04.683Z,1008.8
2023-04-09T04:41:21.724Z,1008.8
2023-04-09T04:42:38.685Z,1008.7
2023-04-09T04:43:55.729Z,1008.7
2023-04-09T04:45:12.687Z,1008.7
2023-04-09T04:46:29.692Z,1008.8
2023-04-09T04:47:46.728Z,1008.8
2023-04-09T04:49:03.737Z,1008.8
2023-04-09T04:50:21.328Z,1008.8
2023-04-09T04:51:38.689Z,1008.8
2023-04-09T04:52:55.686Z,1008.8
2023-04-09T04:54:12.875Z,1008.8
2023-04-09T04:55:29.700Z,1008.8
2023-04-09T04:56:46.786Z,1008.8
2023-04-09T04:58:04.793Z,1008.8
2023-04-09T04:59:21.734Z,1008.8
2023-04-09T05:00:38.784Z,1008.8
2023-04-09T05:01:55.860Z,1008.8
2023-04-09T05:03:12.763Z,1008.8
2023-04-09T05:04:29.744Z,1008.8
2023-04-09T05:05:46.764Z,1008.8
2023-04-09T05:07:03.705Z,1008.8
2023-04-09T05:08:20.708Z,1008.8
2023-04-09T05:09:37.789Z,1008.7
2023-04-09T05:10:54.720Z,1008.8
2023-04-09T05:12:11.708Z,1008.8
2023-04-09T05:13:28.752Z,1008.8
2023-04-09T05:14:45.880Z,1008.8
2023-04-09T05:16:02.774Z,1008.8
2023-04-09T05:17:20.291Z,1008.8
2023-04-09T05:18:37.787Z,1008.8
2023-04-09T05:19:54.724Z,1008.8
2023-04-09T05:21:11.759Z,1008.8
2023-04-09T05:22:28.834Z,1008.8
2023-04-09T05:23:45.743Z,1008.7
2023-04-09T05:25:02.775Z,1008.8
2023-04-09T05:26:19.746Z,1008.8
2023-04-09T05:27:36.976Z,1008.8
2023-04-09T05:28:53.825Z,1008.8
2023-04-09T05:30:10.802Z,1008.9
2023-04-09T05:31:27.744Z,1008.9
2023-04-09T05:32:45.811Z,1008.9
2023-04-09T05:34:02.809Z,1008.9
2023-04-09T05:35:19.759Z,1008.9
2023-04-09T05:36:39.741Z,1008.9
2023-04-09T05:37:56.785Z,1008.9
2023-04-09T05:39:13.807Z,1008.9
2023-04-09T05:40:30.838Z,1008.8
2023-04-09T05:41:47.759Z,1008.9
2023-04-09T05:43:04.762Z,1008.9
2023-04-09T05:44:21.818Z,1008.9
2023-04-09T05:45:38.781Z,1008.9
2023-04-09T05:46:55.806Z,1008.9
2023-04-09T05:48:12.778Z,1008.8
2023-04-09T05:49:29.819Z,1008.9
2023-04-09T05:50:54.330Z,1008.9
2023-04-09T05:52:03.801Z,1008.9
2023-04-09T05:53:21.364Z,1008.9
2023-04-09T05:54:38.808Z,1008.9
2023-04-09T05:55:55.812Z,1008.9
2023-04-09T05:57:12.778Z,1008.9
2023-04-09T05:58:29.816Z,1008.9
2023-04-09T05:59:46.807Z,1008.9
2023-04-09T06:01:03.826Z,1008.9
2023-04-09T06:02:20.983Z,1008.8
2023-04-09T06:03:37.910Z,1008.9
2023-04-09T06:04:54.886Z,1008.9
2023-04-09T06:06:11.826Z,1008.8
2023-04-09T06:07:28.789Z,1008.8
2023-04-09T06:08:45.790Z,1008.8
2023-04-09T06:10:03.142Z,1008.9
2023-04-09T06:11:19.866Z,1008.9
2023-04-09T06:12:36.802Z,1009
2023-04-09T06:13:54.102Z,1008.9
2023-04-09T06:15:11.850Z,1008.9
2023-04-09T06:16:28.828Z,1008.9
2023-04-09T06:17:45.855Z,1008.9
2023-04-09T06:19:02.802Z,1008.9
2023-04-09T06:20:19.860Z,1008.9
2023-04-09T06:21:36.848Z,1008.9
2023-04-09T06:22:54.847Z,1008.9
2023-04-09T06:24:11.814Z,1008.9
2023-04-09T06:25:28.836Z,1008.9
2023-04-09T06:26:45.853Z,1008.8
2023-04-09T06:28:02.930Z,1008.8
2023-04-09T06:29:19.829Z,1008.9
2023-04-09T06:30:37.084Z,1008.9
2023-04-09T06:31:53.832Z,1008.9
2023-04-09T06:33:10.849Z,1009
2023-04-09T06:34:27.842Z,1008.9
2023-04-09T06:35:44.887Z,1008.9
2023-04-09T06:37:01.862Z,1008.9
2023-04-09T06:38:18.873Z,1009
2023-04-09T06:39:35.945Z,1009
2023-04-09T06:40:52.877Z,1009
2023-04-09T06:42:09.914Z,1009
2023-04-09T06:43:26.908Z,1008.9
2023-04-09T06:44:44.023Z,1009
2023-04-09T06:46:00.885Z,1009
2023-04-09T06:47:17.862Z,1009
2023-04-09T06:48:34.858Z,1009
2023-04-09T06:49:51.902Z,1009.1
2023-04-09T06:51:08.897Z,1009.1
2023-04-09T06:52:26.047Z,1009.1
2023-04-09T06:53:42.885Z,1009
2023-04-09T06:54:59.874Z,1009
2023-04-09T06:56:17.144Z,1009
2023-04-09T06:57:33.925Z,1009.1
2023-04-09T06:58:50.858Z,1009.1
2023-04-09T07:00:07.900Z,1009.1
2023-04-09T07:01:24.976Z,1009.1
2023-04-09T07:02:43.462Z,1009.1
2023-04-09T07:04:00.978Z,1009.1
2023-04-09T07:05:17.895Z,1009.1
2023-04-09T07:06:34.924Z,1009.1
2023-04-09T07:07:52.135Z,1009.1
2023-04-09T07:09:08.873Z,1009.1
2023-04-09T07:10:25.878Z,1009.1
2023-04-09T07:11:42.928Z,1009
2023-04-09T07:12:59.936Z,1009
2023-04-09T07:14:16.928Z,1009.1
2023-04-09T07:15:33.891Z,1009.1
2023-04-09T07:16:50.958Z,1009.1
2023-04-09T07:18:07.988Z,1009.1
2023-04-09T07:19:25.037Z,1009.1
2023-04-09T07:20:42.004Z,1009.1
2023-04-09T07:21:59.046Z,1009.1
2023-04-09T07:23:15.939Z,1009.1
2023-04-09T07:24:32.943Z,1009.1
2023-04-09T07:25:49.935Z,1009.1
2023-04-09T07:27:07.784Z,1009.1
2023-04-09T07:28:24.963Z,1009.1
2023-04-09T07:29:42.821Z,1009.1
2023-04-09T07:30:59.915Z,1009.1
2023-04-09T07:32:16.919Z,1009.1
2023-04-09T07:33:33.952Z,1009.1
2023-04-09T07:34:50.972Z,1009.1
2023-04-09T07:36:08.366Z,1009.1
2023-04-09T07:37:25.945Z,1009.1
2023-04-09T07:38:44.180Z,1009.1
2023-04-09T07:40:01.002Z,1009.2
2023-04-09T07:41:17.990Z,1009.2
2023-04-09T07:42:34.924Z,1009.2
2023-04-09T07:43:51.961Z,1009.2
2023-04-09T07:45:08.980Z,1009.2
2023-04-09T07:46:26.022Z,1009.2
2023-04-09T07:47:42.989Z,1009.2
2023-04-09T07:48:59.965Z,1009.2
2023-04-09T07:50:16.979Z,1009.2
2023-04-09T07:51:34.004Z,1009.2
2023-04-09T07:52:50.942Z,1009.2
2023-04-09T07:54:07.949Z,1009.2
2023-04-09T07:55:24.943Z,1009.2
2023-04-09T07:56:41.976Z,1009.1
2023-04-09T07:57:58.957Z,1009.1
2023-04-09T07:59:15.977Z,1009.2
2023-04-09T08:00:32.943Z,1009.2
2023-04-09T08:01:50.028Z,1009.2
2023-04-09T08:03:07.263Z,1009.2
2023-04-09T08:04:24.171Z,1009.2
2023-04-09T08:05:41.325Z,1009.2
2023-04-09T08:06:58.041Z,1009.2
2023-04-09T08:08:15.053Z,1009.2
2023-04-09T08:09:32.036Z,1009.2
2023-04-09T08:10:48.971Z,1009.1
2023-04-09T08:12:06.069Z,1009.1
2023-04-09T08:13:22.979Z,1009.1
2023-04-09T08:14:40.072Z,1009.1
2023-04-09T08:15:57.177Z,1009.1
2023-04-09T08:17:14.792Z,1009.1
2023-04-09T08:18:31.996Z,1009.2
2023-04-09T08:19:49.014Z,1009.2
2023-04-09T08:21:06.126Z,1009.2
2023-04-09T08:22:23.021Z,1009.2
2023-04-09T08:23:39.997Z,1009.2
2023-04-09T08:24:57.551Z,1009.2
2023-04-09T08:26:19.923Z,1009.2
2023-04-09T08:27:38.162Z,1009.2
2023-04-09T08:28:55.323Z,1009.2
2023-04-09T08:30:12.285Z,1009.2
2023-04-09T08:31:30.172Z,1009.2
2023-04-09T08:32:48.126Z,1009.2
2023-04-09T08:34:05.189Z,1009.2
2023-04-09T08:35:22.022Z,1009.2
2023-04-09T08:36:39.066Z,1009.2
2023-04-09T08:37:55.993Z,1009.2
2023-04-09T08:39:13.033Z,1009.2
2023-04-09T08:40:30.008Z,1009.2
2023-04-09T08:41:48.354Z,1009.2
2023-04-09T08:43:06.371Z,1009.2
2023-04-09T08:44:24.031Z,1009.3
2023-04-09T08:45:41.138Z,1009.3
2023-04-09T08:46:59.620Z,1009.3
2023-04-09T08:48:15.175Z,1009.3
2023-04-09T08:49:32.045Z,1009.3
2023-04-09T08:50:49.060Z,1009.3
2023-04-09T08:52:06.020Z,1009.3
2023-04-09T08:53:23.054Z,1009.3
2023-04-09T08:54:40.059Z,1009.4
2023-04-09T08:55:57.013Z,1009.4
2023-04-09T08:57:14.345Z,1009.4
2023-04-09T08:58:31.022Z,1009.3
2023-04-09T08:59:48.056Z,1009.3
2023-04-09T09:01:05.185Z,1009.3
2023-04-09T09:02:22.167Z,1009.3
2023-04-09T09:03:39.088Z,1009.3
2023-04-09T09:04:56.547Z,1009.3
2023-04-09T09:06:14.140Z,1009.2
2023-04-09T09:07:31.055Z,1009.3
2023-04-09T09:08:48.025Z,1009.3
2023-04-09T09:10:05.120Z,1009.3
2023-04-09T09:11:22.074Z,1009.3
2023-04-09T09:12:39.144Z,1009.3
2023-04-09T09:13:56.075Z,1009.3
2023-04-09T09:15:13.105Z,1009.3
2023-04-09T09:16:30.168Z,1009.3
2023-04-09T09:17:47.081Z,1009.3
2023-04-09T09:19:04.116Z,1009.3
2023-04-09T09:20:21.097Z,1009.3
2023-04-09T09:21:38.094Z,1009.3
2023-04-09T09:22:55.586Z,1009.3
2023-04-09T09:24:12.772Z,1009.3
2023-04-09T09:25:30.125Z,1009.3
2023-04-09T09:26:47.168Z,1009.3
2023-04-09T09:28:04.137Z,1009.3
2023-04-09T09:29:21.075Z,1009.4
2023-04-09T09:30:38.141Z,1009.4
2023-04-09T09:31:55.176Z,1009.4
2023-04-09T09:33:12.074Z,1009.4
2023-04-09T09:34:29.154Z,1009.4
2023-04-09T09:35:46.100Z,1009.4
2023-04-09T09:37:03.114Z,1009.4
2023-04-09T09:38:20.172Z,1009.4
2023-04-09T09:39:38.174Z,1009.4
2023-04-09T09:40:55.118Z,1009.4
2023-04-09T09:42:12.795Z,1009.4
2023-04-09T09:43:30.144Z,1009.4
2023-04-09T09:44:47.103Z,1009.4
2023-04-09T09:46:04.212Z,1009.4
2023-04-09T09:47:21.363Z,1009.3
2023-04-09T09:48:38.181Z,1009.4
2023-04-09T09:49:55.173Z,1009.4
2023-04-09T09:51:12.106Z,1009.4
2023-04-09T09:52:29.132Z,1009.3
2023-04-09T09:53:47.765Z,1009.4
2023-04-09T09:55:03.130Z,1009.3
2023-04-09T09:56:20.127Z,1009.3
2023-04-09T09:57:37.149Z,1009.3
2023-04-09T09:58:54.293Z,1009.3
2023-04-09T10:00:11.224Z,1009.3
2023-04-09T10:01:28.147Z,1009.4
2023-04-09T10:02:45.443Z,1009.4
2023-04-09T10:04:03.242Z,1009.4
2023-04-09T10:05:20.138Z,1009.4
2023-04-09T10:06:37.115Z,1009.3
2023-04-09T10:07:54.146Z,1009.3
2023-04-09T10:09:11.211Z,1009.3
2023-04-09T10:10:28.144Z,1009.3
2023-04-09T10:11:45.780Z,1009.3
2023-04-09T10:13:03.544Z,1009.3
2023-04-09T10:14:20.165Z,1009.3
2023-04-09T10:15:37.174Z,1009.3
2023-04-09T10:16:54.172Z,1009.3
2023-04-09T10:18:11.183Z,1009.3
2023-04-09T10:19:28.160Z,1009.3
2023-04-09T10:20:45.166Z,1009.3
2023-04-09T10:22:02.846Z,1009.3
2023-04-09T10:23:20.150Z,1009.3
2023-04-09T10:24:37.167Z,1009.3
2023-04-09T10:25:54.172Z,1009.3
2023-04-09T10:27:12.108Z,1009.3
2023-04-09T10:28:28.194Z,1009.4
2023-04-09T10:29:45.151Z,1009.4
2023-04-09T10:31:02.216Z,1009.4
2023-04-09T10:32:19.176Z,1009.4
2023-04-09T10:33:36.224Z,1009.3
2023-04-09T10:34:53.178Z,1009.3
2023-04-09T10:36:10.228Z,1009.3
2023-04-09T10:37:27.240Z,1009.3
2023-04-09T10:38:44.166Z,1009.3
2023-04-09T10:40:01.180Z,1009.3
2023-04-09T10:41:18.176Z,1009.3
2023-04-09T10:42:35.270Z,1009.3
2023-04-09T10:43:52.196Z,1009.3
2023-04-09T10:45:09.222Z,1009.3
2023-04-09T10:46:26.198Z,1009.3
2023-04-09T10:47:43.311Z,1009.3
2023-04-09T10:49:00.271Z,1009.3
2023-04-09T10:50:17.216Z,1009.3
2023-04-09T10:51:34.200Z,1009.3
2023-04-09T10:52:51.219Z,1009.3
2023-04-09T10:54:08.265Z,1009.3
2023-04-09T10:55:25.199Z,1009.3
2023-04-09T10:56:42.219Z,1009.3
2023-04-09T10:57:59.240Z,1009.3
2023-04-09T10:59:16.246Z,1009.3
2023-04-09T11:00:33.218Z,1009.3
2023-04-09T11:01:50.380Z,1009.3
2023-04-09T11:03:07.416Z,1009.3
2023-04-09T11:04:24.314Z,1009.3
2023-04-09T11:05:41.225Z,1009.3
2023-04-09T11:06:58.217Z,1009.3
2023-04-09T11:08:15.260Z,1009.2
2023-04-09T11:09:32.205Z,1009.2
2023-04-09T11:10:51.881Z,1009.2
2023-04-09T11:12:06.260Z,1009.2
2023-04-09T11:13:23.277Z,1009.2
2023-04-09T11:14:40.242Z,1009.2
2023-04-09T11:15:57.302Z,1009.1
2023-04-09T11:17:14.237Z,1009.1
2023-04-09T11:18:31.264Z,1009.1
2023-04-09T11:19:48.249Z,1009.1
2023-04-09T11:21:05.239Z,1009.1
2023-04-09T11:22:22.238Z,1009.1
2023-04-09T11:23:39.308Z,1009.1
2023-04-09T11:24:56.251Z,1009.2
2023-04-09T11:26:13.293Z,1009.2
2023-04-09T11:27:30.237Z,1009.2
2023-04-09T11:28:47.250Z,1009.1
2023-04-09T11:30:04.337Z,1009.1
2023-04-09T11:31:21.359Z,1009.1
2023-04-09T11:32:38.288Z,1009.1
2023-04-09T11:33:55.253Z,1009
2023-04-09T11:35:12.281Z,1009
2023-04-09T11:36:29.340Z,1009
2023-04-09T11:37:46.282Z,1009.1
2023-04-09T11:39:03.241Z,1009
2023-04-09T11:40:20.272Z,1009
2023-04-09T11:41:37.294Z,1009.1
2023-04-09T11:42:54.274Z,1009.1
2023-04-09T11:44:11.287Z,1009.1
2023-04-09T11:45:28.263Z,1009.1
2023-04-09T11:46:45.271Z,1009.1
2023-04-09T11:48:02.319Z,1009.1
2023-04-09T11:49:19.292Z,1009.1
2023-04-09T11:50:37.359Z,1009.1
2023-04-09T11:51:54.265Z,1009.1
2023-04-09T11:53:11.316Z,1009.1
2023-04-09T11:54:28.322Z,1009.1
2023-04-09T11:55:45.287Z,1009.1
2023-04-09T11:57:02.313Z,1009.1
2023-04-09T11:58:19.265Z,1009.1
2023-04-09T11:59:36.282Z,1009.1
2023-04-09T12:00:53.310Z,1009.2
2023-04-09T12:02:10.539Z,1009.2
2023-04-09T12:03:27.493Z,1009.2
2023-04-09T12:04:44.356Z,1009.2
2023-04-09T12:06:01.316Z,1009.2
2023-04-09T12:07:18.346Z,1009.2
2023-04-09T12:08:35.283Z,1009.2
2023-04-09T12:09:52.282Z,1009.2
2023-04-09T12:11:09.387Z,1009.2
2023-04-09T12:12:26.435Z,1009.2
2023-04-09T12:13:43.528Z,1009.2
2023-04-09T12:15:00.335Z,1009.2
2023-04-09T12:16:17.341Z,1009.3
2023-04-09T12:17:34.370Z,1009.3
2023-04-09T12:18:51.467Z,1009.2
2023-04-09T12:20:08.517Z,1009.3
2023-04-09T12:21:25.330Z,1009.3
2023-04-09T12:22:42.374Z,1009.3
2023-04-09T12:23:59.296Z,1009.3
2023-04-09T12:25:16.310Z,1009.3
2023-04-09T12:26:33.342Z,1009.3
2023-04-09T12:27:50.427Z,1009.3
2023-04-09T12:29:07.312Z,1009.3
2023-04-09T12:30:24.316Z,1009.3
2023-04-09T12:31:41.345Z,1009.3
2023-04-09T12:32:58.402Z,1009.3
2023-04-09T12:34:15.326Z,1009.4
2023-04-09T12:35:32.543Z,1009.4
2023-04-09T12:36:49.349Z,1009.3
2023-04-09T12:38:06.401Z,1009.3
2023-04-09T12:39:23.315Z,1009.3
2023-04-09T12:40:40.478Z,1009.3
2023-04-09T12:41:57.328Z,1009.3
2023-04-09T12:43:14.349Z,1009.3
2023-04-09T12:44:31.344Z,1009.3
2023-04-09T12:45:48.378Z,1009.3
2023-04-09T12:47:05.356Z,1009.3
2023-04-09T12:48:22.397Z,1009.3
2023-04-09T12:49:41.117Z,1009.3
2023-04-09T12:50:56.370Z,1009.3
2023-04-09T12:52:13.387Z,1009.3
2023-04-09T12:53:30.399Z,1009.3
2023-04-09T12:54:48.795Z,1009.3
2023-04-09T12:56:04.378Z,1009.3
2023-04-09T12:57:21.369Z,1009.3
2023-04-09T12:58:38.425Z,1009.3
2023-04-09T12:59:55.390Z,1009.2
2023-04-09T13:01:12.520Z,1009.2
2023-04-09T13:02:29.438Z,1009.3
2023-04-09T13:03:46.706Z,1009.3
2023-04-09T13:05:03.452Z,1009.3
2023-04-09T13:06:20.375Z,1009.2
2023-04-09T13:07:37.421Z,1009.2
2023-04-09T13:08:54.390Z,1009.3
2023-04-09T13:10:11.446Z,1009.3
2023-04-09T13:11:28.390Z,1009.3
2023-04-09T13:12:45.404Z,1009.3
2023-04-09T13:14:02.408Z,1009.2
2023-04-09T13:15:19.458Z,1009.2
2023-04-09T13:16:36.412Z,1009.2
2023-04-09T13:17:53.471Z,1009.2
2023-04-09T13:19:10.401Z,1009.2
2023-04-09T13:20:27.473Z,1009.2
2023-04-09T13:21:44.395Z,1009.2
2023-04-09T13:23:01.456Z,1009.2
2023-04-09T13:24:18.406Z,1009.2
2023-04-09T13:25:35.448Z,1009.3
2023-04-09T13:26:52.397Z,1009.2
2023-04-09T13:28:09.414Z,1009.2
2023-04-09T13:29:26.447Z,1009.2
2023-04-09T13:30:43.524Z,1009.2
2023-04-09T13:32:00.396Z,1009.2
2023-04-09T13:33:18.468Z,1009.2
2023-04-09T13:34:35.655Z,1009.2
2023-04-09T13:35:53.307Z,1009.2
2023-04-09T13:37:10.418Z,1009.2
2023-04-09T13:38:27.485Z,1009.2
2023-04-09T13:39:44.439Z,1009.2
2023-04-09T13:41:01.486Z,1009.2
2023-04-09T13:42:18.435Z,1009.2
2023-04-09T13:43:35.424Z,1009.1
2023-04-09T13:44:52.433Z,1009.1
2023-04-09T13:46:09.509Z,1009.1
2023-04-09T13:47:26.556Z,1009.2
2023-04-09T13:48:43.425Z,1009.2
2023-04-09T13:50:00.452Z,1009.2
2023-04-09T13:51:17.494Z,1009.2
2023-04-09T13:52:34.437Z,1009.1
2023-04-09T13:53:51.457Z,1009.2
2023-04-09T13:55:08.459Z,1009.2
2023-04-09T13:56:25.467Z,1009.3
2023-04-09T13:57:42.448Z,1009.3
2023-04-09T13:58:59.498Z,1009.3
2023-04-09T14:00:16.475Z,1009.2
2023-04-09T14:01:33.498Z,1009.2
2023-04-09T14:02:50.542Z,1009.2
2023-04-09T14:04:07.552Z,1009.2
2023-04-09T14:05:24.522Z,1009.2
2023-04-09T14:06:41.482Z,1009.3
2023-04-09T14:07:58.457Z,1009.2
2023-04-09T14:09:15.554Z,1009.2
2023-04-09T14:10:32.468Z,1009.2
2023-04-09T14:11:49.478Z,1009.2
2023-04-09T14:13:06.466Z,1009.3
2023-04-09T14:14:23.490Z,1009.2
2023-04-09T14:15:40.578Z,1009.3
2023-04-09T14:16:57.470Z,1009.2
2023-04-09T14:18:14.650Z,1009.2
2023-04-09T14:19:31.499Z,1009.2
2023-04-09T14:20:48.534Z,1009.2
2023-04-09T14:22:05.469Z,1009.2
2023-04-09T14:23:22.472Z,1009.2
2023-04-09T14:24:39.531Z,1009.1
2023-04-09T14:25:56.546Z,1009.2
2023-04-09T14:27:13.595Z,1009.2
2023-04-09T14:28:30.478Z,1009.1
2023-04-09T14:29:47.503Z,1009.1
2023-04-09T14:31:04.581Z,1009.2
2023-04-09T14:32:21.563Z,1009.2
2023-04-09T14:33:38.507Z,1009.2
2023-04-09T14:34:55.496Z,1009.2
2023-04-09T14:36:12.527Z,1009.2
2023-04-09T14:37:29.516Z,1009.2
2023-04-09T14:38:46.624Z,1009.2
2023-04-09T14:40:03.568Z,1009.1
2023-04-09T14:41:20.515Z,1009.1
2023-04-09T14:42:37.556Z,1009.1
2023-04-09T14:43:54.584Z,1009.2
2023-04-09T14:45:11.511Z,1009.1
2023-04-09T14:46:28.573Z,1009.1
2023-04-09T14:47:45.718Z,1009.1
2023-04-09T14:49:02.534Z,1009.1
2023-04-09T14:50:19.534Z,1009.1
2023-04-09T14:51:36.550Z,1009.1
2023-04-09T14:52:53.518Z,1009.1
2023-04-09T14:54:10.626Z,1009.1
2023-04-09T14:55:27.559Z,1009.1
2023-04-09T14:56:44.543Z,1009.1
2023-04-09T14:58:01.529Z,1009.1
2023-04-09T14:59:18.584Z,1009.1
2023-04-09T15:00:35.576Z,1009.1
2023-04-09T15:01:53.627Z,1009.1
2023-04-09T15:03:11.554Z,1009.1
2023-04-09T15:04:28.649Z,1009.1
2023-04-09T15:05:45.616Z,1009
2023-04-09T15:07:03.083Z,1009.1
2023-04-09T15:08:20.564Z,1009
2023-04-09T15:09:37.568Z,1009.1
2023-04-09T15:10:54.582Z,1009
2023-04-09T15:12:11.586Z,1009.1
2023-04-09T15:13:28.572Z,1008.9
2023-04-09T15:14:45.584Z,1009
2023-04-09T15:16:02.588Z,1009
2023-04-09T15:17:19.644Z,1009
2023-04-09T15:18:36.569Z,1009
2023-04-09T15:19:53.650Z,1009
2023-04-09T15:21:10.565Z,1009
2023-04-09T15:22:27.579Z,1009
2023-04-09T15:23:44.596Z,1009
2023-04-09T15:25:01.602Z,1009
2023-04-09T15:26:18.589Z,1009
2023-04-09T15:27:35.957Z,1009
2023-04-09T15:28:52.810Z,1009
2023-04-09T15:30:10.013Z,1009
2023-04-09T15:31:27.682Z,1009
2023-04-09T15:32:44.611Z,1009
2023-04-09T15:34:01.596Z,1009
2023-04-09T15:35:18.604Z,1009
2023-04-09T15:36:35.617Z,1009
2023-04-09T15:37:52.651Z,1009
2023-04-09T15:39:09.599Z,1009
2023-04-09T15:40:26.603Z,1009
2023-04-09T15:41:43.604Z,1009
2023-04-09T15:43:00.619Z,1009
2023-04-09T15:44:17.625Z,1008.9
2023-04-09T15:45:34.712Z,1009
2023-04-09T15:46:51.592Z,1009
2023-04-09T15:48:08.702Z,1009
2023-04-09T15:49:25.598Z,1008.9
2023-04-09T15:50:42.643Z,1008.9
2023-04-09T15:51:59.633Z,1008.9
2023-04-09T15:53:16.602Z,1008.9
2023-04-09T15:54:33.610Z,1008.9
2023-04-09T15:55:50.728Z,1009
2023-04-09T15:57:07.639Z,1009
2023-04-09T15:58:24.612Z,1009
2023-04-09T15:59:41.618Z,1008.9
2023-04-09T16:00:58.677Z,1008.9
2023-04-09T16:02:15.666Z,1009
2023-04-09T16:03:32.618Z,1009
2023-04-09T16:04:49.668Z,1008.9